sensor_id;sensor_type;location;lat;lon;timestamp;pressure;altitude;pressure_sealevel;temperature;humidity
14393;BME280;7281;42.678;23.372;2023-01-30T00:01:43;95389.03;;;4.80;46.75
14393;BME280;7281;42.678;23.372;2023-01-30T00:04:12;95383.44;;;4.32;47.49
14393;BME280;7281;42.678;23.372;2023-01-30T00:06:42;95379.75;;;4.59;47.19
14393;BME280;7281;42.678;23.372;2023-01-30T00:09:13;95380.13;;;4.56;47.14
14393;BME280;7281;42.678;23.372;2023-01-30T00:11:42;95382.09;;;4.67;46.90
14393;BME280;7281;42.678;23.372;2023-01-30T00:14:09;95369.06;;;5.11;46.10
14393;BME280;7281;42.678;23.372;2023-01-30T00:16:36;95379.13;;;5.01;46.16
14393;BME280;7281;42.678;23.372;2023-01-30T00:19:03;95387.91;;;5.00;46.63
14393;BME280;7281;42.678;23.372;2023-01-30T00:21:30;95374.72;;;5.02;46.51
14393;BME280;7281;42.678;23.372;2023-01-30T00:23:57;95383.56;;;4.94;46.32
14393;BME280;7281;42.678;23.372;2023-01-30T00:26:25;95385.28;;;4.69;47.14
14393;BME280;7281;42.678;23.372;2023-01-30T00:28:52;95371.84;;;4.41;47.07
14393;BME280;7281;42.678;23.372;2023-01-30T00:31:19;95387.78;;;4.38;47.37
14393;BME280;7281;42.678;23.372;2023-01-30T00:33:46;95390.97;;;4.47;47.57
14393;BME280;7281;42.678;23.372;2023-01-30T00:36:13;95391.53;;;4.55;47.42
14393;BME280;7281;42.678;23.372;2023-01-30T00:38:40;95379.34;;;4.05;48.34
14393;BME280;7281;42.678;23.372;2023-01-30T00:41:08;95381.31;;;4.60;47.41
14393;BME280;7281;42.678;23.372;2023-01-30T00:43:36;95366.97;;;4.58;47.04
14393;BME280;7281;42.678;23.372;2023-01-30T00:46:32;95365.41;;;4.50;47.54
14393;BME280;7281;42.678;23.372;2023-01-30T00:49:18;95371.50;;;4.18;48.05
14393;BME280;7281;42.678;23.372;2023-01-30T00:51:45;95365.56;;;3.98;48.77
14393;BME280;7281;42.678;23.372;2023-01-30T00:54:12;95365.34;;;4.06;48.25
14393;BME280;7281;42.678;23.372;2023-01-30T00:56:39;95372.56;;;3.91;49.07
14393;BME280;7281;42.678;23.372;2023-01-30T00:59:06;95370.59;;;4.50;47.35
14393;BME280;7281;42.678;23.372;2023-01-30T01:01:32;95365.34;;;4.63;47.46
14393;BME280;7281;42.678;23.372;2023-01-30T01:04:00;95367.00;;;4.51;47.33
14393;BME280;7281;42.678;23.372;2023-01-30T01:06:27;95374.19;;;4.49;47.41
14393;BME280;7281;42.678;23.372;2023-01-30T01:08:55;95365.69;;;4.73;47.34
14393;BME280;7281;42.678;23.372;2023-01-30T01:11:22;95365.34;;;4.63;47.30
14393;BME280;7281;42.678;23.372;2023-01-30T01:13:58;95361.47;;;4.41;47.90
14393;BME280;7281;42.678;23.372;2023-01-30T01:16:25;95361.56;;;4.59;47.42
14393;BME280;7281;42.678;23.372;2023-01-30T01:18:53;95349.00;;;4.56;47.28
14393;BME280;7281;42.678;23.372;2023-01-30T01:21:21;95334.22;;;4.63;47.43
14393;BME280;7281;42.678;23.372;2023-01-30T01:23:55;95344.50;;;4.76;47.22
14393;BME280;7281;42.678;23.372;2023-01-30T01:26:23;95346.97;;;4.65;47.10
14393;BME280;7281;42.678;23.372;2023-01-30T01:28:57;95350.00;;;4.04;48.70
14393;BME280;7281;42.678;23.372;2023-01-30T01:31:24;95352.28;;;4.39;47.74
14393;BME280;7281;42.678;23.372;2023-01-30T01:33:54;95347.50;;;4.29;48.48
14393;BME280;7281;42.678;23.372;2023-01-30T01:36:21;95348.00;;;4.00;48.59
14393;BME280;7281;42.678;23.372;2023-01-30T01:39:08;95332.66;;;4.49;47.86
14393;BME280;7281;42.678;23.372;2023-01-30T01:41:35;95344.75;;;4.68;47.64
14393;BME280;7281;42.678;23.372;2023-01-30T01:44:08;95343.09;;;4.36;47.53
14393;BME280;7281;42.678;23.372;2023-01-30T01:46:50;95345.47;;;4.44;47.54
14393;BME280;7281;42.678;23.372;2023-01-30T01:49:27;95340.47;;;4.87;46.98
14393;BME280;7281;42.678;23.372;2023-01-30T01:52:01;95346.19;;;4.64;47.25
14393;BME280;7281;42.678;23.372;2023-01-30T01:54:53;95341.56;;;4.66;47.29
14393;BME280;7281;42.678;23.372;2023-01-30T01:57:25;95339.84;;;4.47;47.24
14393;BME280;7281;42.678;23.372;2023-01-30T02:00:19;95345.75;;;4.67;47.19
14393;BME280;7281;42.678;23.372;2023-01-30T02:05:18;95350.22;;;4.47;47.19
14393;BME280;7281;42.678;23.372;2023-01-30T02:10:25;95336.03;;;4.87;46.98
14393;BME280;7281;42.678;23.372;2023-01-30T02:12:55;95333.66;;;4.92;46.76
14393;BME280;7281;42.678;23.372;2023-01-30T02:15:22;95346.81;;;4.60;46.92
14393;BME280;7281;42.678;23.372;2023-01-30T02:17:50;95336.88;;;4.50;47.30
14393;BME280;7281;42.678;23.372;2023-01-30T02:40:34;95332.78;;;4.23;47.46
14393;BME280;7281;42.678;23.372;2023-01-30T02:46:41;95320.44;;;4.56;46.70
14393;BME280;7281;42.678;23.372;2023-01-30T02:51:49;95323.91;;;4.50;46.57
14393;BME280;7281;42.678;23.372;2023-01-30T02:54:16;95317.38;;;4.72;46.29
14393;BME280;7281;42.678;23.372;2023-01-30T02:56:46;95321.41;;;4.62;46.42
14393;BME280;7281;42.678;23.372;2023-01-30T02:59:16;95325.50;;;4.45;46.59
14393;BME280;7281;42.678;23.372;2023-01-30T03:13:19;95315.41;;;4.99;45.70
14393;BME280;7281;42.678;23.372;2023-01-30T03:16:02;95304.66;;;4.95;45.69
14393;BME280;7281;42.678;23.372;2023-01-30T03:18:31;95311.81;;;4.69;46.25
14393;BME280;7281;42.678;23.372;2023-01-30T03:21:02;95306.28;;;4.90;46.23
14393;BME280;7281;42.678;23.372;2023-01-30T03:23:29;95304.53;;;4.84;46.03
14393;BME280;7281;42.678;23.372;2023-01-30T03:25:56;95289.06;;;4.95;45.92
14393;BME280;7281;42.678;23.372;2023-01-30T03:28:23;95297.63;;;4.71;46.63
14393;BME280;7281;42.678;23.372;2023-01-30T03:30:50;95292.69;;;4.63;46.28
14393;BME280;7281;42.678;23.372;2023-01-30T03:33:17;95292.22;;;4.73;46.29
14393;BME280;7281;42.678;23.372;2023-01-30T03:35:47;95287.56;;;4.81;45.91
14393;BME280;7281;42.678;23.372;2023-01-30T03:38:14;95278.09;;;4.93;45.78
14393;BME280;7281;42.678;23.372;2023-01-30T03:40:41;95284.41;;;4.73;46.46
14393;BME280;7281;42.678;23.372;2023-01-30T03:43:08;95286.44;;;4.40;47.31
14393;BME280;7281;42.678;23.372;2023-01-30T03:45:35;95289.22;;;4.38;47.00
14393;BME280;7281;42.678;23.372;2023-01-30T03:48:02;95288.31;;;4.57;46.67
14393;BME280;7281;42.678;23.372;2023-01-30T03:50:29;95288.88;;;4.28;47.33
14393;BME280;7281;42.678;23.372;2023-01-30T03:52:57;95285.69;;;4.26;47.11
14393;BME280;7281;42.678;23.372;2023-01-30T03:55:23;95287.13;;;4.16;47.45
14393;BME280;7281;42.678;23.372;2023-01-30T03:57:53;95279.63;;;4.39;46.87
14393;BME280;7281;42.678;23.372;2023-01-30T04:00:20;95279.69;;;4.32;46.95
14393;BME280;7281;42.678;23.372;2023-01-30T04:02:48;95284.16;;;4.12;47.34
14393;BME280;7281;42.678;23.372;2023-01-30T04:05:16;95288.44;;;4.31;46.98
14393;BME280;7281;42.678;23.372;2023-01-30T04:07:50;95279.69;;;4.32;47.35
14393;BME280;7281;42.678;23.372;2023-01-30T04:10:17;95279.72;;;4.57;46.55
14393;BME280;7281;42.678;23.372;2023-01-30T04:12:46;95277.88;;;4.70;46.07
14393;BME280;7281;42.678;23.372;2023-01-30T04:15:12;95278.06;;;4.38;46.87
14393;BME280;7281;42.678;23.372;2023-01-30T04:17:45;95288.75;;;4.03;47.75
14393;BME280;7281;42.678;23.372;2023-01-30T04:20:36;95282.03;;;4.71;46.43
14393;BME280;7281;42.678;23.372;2023-01-30T04:23:04;95279.47;;;4.27;47.16
14393;BME280;7281;42.678;23.372;2023-01-30T04:25:30;95284.59;;;4.02;47.71
14393;BME280;7281;42.678;23.372;2023-01-30T04:27:58;95281.63;;;3.99;47.87
14393;BME280;7281;42.678;23.372;2023-01-30T04:30:30;95284.59;;;3.96;47.75
14393;BME280;7281;42.678;23.372;2023-01-30T04:33:14;95280.06;;;4.29;47.37
14393;BME280;7281;42.678;23.372;2023-01-30T04:35:49;95283.25;;;4.31;47.05
14393;BME280;7281;42.678;23.372;2023-01-30T04:38:16;95281.19;;;4.46;47.05
14393;BME280;7281;42.678;23.372;2023-01-30T04:40:46;95278.44;;;4.41;46.92
14393;BME280;7281;42.678;23.372;2023-01-30T04:43:13;95285.03;;;3.93;47.78
14393;BME280;7281;42.678;23.372;2023-01-30T04:46:04;95273.31;;;4.28;47.28
14393;BME280;7281;42.678;23.372;2023-01-30T04:48:30;95276.16;;;3.56;48.29
14393;BME280;7281;42.678;23.372;2023-01-30T04:50:59;95281.56;;;3.29;49.56
14393;BME280;7281;42.678;23.372;2023-01-30T04:53:27;95255.78;;;3.73;48.48
14393;BME280;7281;42.678;23.372;2023-01-30T04:55:54;95263.00;;;4.15;48.16
14393;BME280;7281;42.678;23.372;2023-01-30T04:58:21;95262.69;;;3.92;48.34
14393;BME280;7281;42.678;23.372;2023-01-30T05:00:48;95256.50;;;3.93;48.23
14393;BME280;7281;42.678;23.372;2023-01-30T05:03:16;95255.19;;;3.77;48.46
14393;BME280;7281;42.678;23.372;2023-01-30T05:05:45;95262.44;;;4.00;48.37
14393;BME280;7281;42.678;23.372;2023-01-30T05:08:14;95247.38;;;4.28;47.53
14393;BME280;7281;42.678;23.372;2023-01-30T05:10:41;95251.34;;;3.80;48.64
14393;BME280;7281;42.678;23.372;2023-01-30T05:13:08;95254.19;;;4.16;47.78
14393;BME280;7281;42.678;23.372;2023-01-30T05:15:35;95266.59;;;4.14;47.79
14393;BME280;7281;42.678;23.372;2023-01-30T05:18:02;95256.94;;;3.83;48.52
14393;BME280;7281;42.678;23.372;2023-01-30T05:20:29;95262.88;;;4.41;47.26
14393;BME280;7281;42.678;23.372;2023-01-30T05:22:55;95268.94;;;4.22;47.74
14393;BME280;7281;42.678;23.372;2023-01-30T05:25:22;95273.06;;;3.92;48.29
14393;BME280;7281;42.678;23.372;2023-01-30T05:27:49;95276.28;;;3.81;48.77
14393;BME280;7281;42.678;23.372;2023-01-30T05:30:16;95274.94;;;4.16;48.03
14393;BME280;7281;42.678;23.372;2023-01-30T05:32:43;95276.81;;;3.96;47.97
14393;BME280;7281;42.678;23.372;2023-01-30T05:35:10;95280.28;;;3.77;48.88
14393;BME280;7281;42.678;23.372;2023-01-30T05:37:37;95277.06;;;3.88;49.28
14393;BME280;7281;42.678;23.372;2023-01-30T05:40:04;95269.38;;;4.19;48.71
14393;BME280;7281;42.678;23.372;2023-01-30T05:42:32;95272.19;;;4.11;49.05
14393;BME280;7281;42.678;23.372;2023-01-30T05:44:59;95267.47;;;4.39;48.49
14393;BME280;7281;42.678;23.372;2023-01-30T05:47:25;95264.97;;;4.20;48.53
14393;BME280;7281;42.678;23.372;2023-01-30T05:49:52;95267.22;;;4.47;49.44
14393;BME280;7281;42.678;23.372;2023-01-30T05:52:19;95263.31;;;4.32;49.29
14393;BME280;7281;42.678;23.372;2023-01-30T05:54:46;95273.34;;;4.59;49.58
14393;BME280;7281;42.678;23.372;2023-01-30T05:57:13;95280.13;;;4.16;49.88
14393;BME280;7281;42.678;23.372;2023-01-30T05:59:40;95280.56;;;4.13;49.16
14393;BME280;7281;42.678;23.372;2023-01-30T06:02:06;95283.19;;;4.00;49.38
14393;BME280;7281;42.678;23.372;2023-01-30T06:04:35;95276.59;;;4.48;49.72
14393;BME280;7281;42.678;23.372;2023-01-30T06:07:02;95277.13;;;4.63;49.37
14393;BME280;7281;42.678;23.372;2023-01-30T06:09:29;95277.59;;;4.78;47.92
14393;BME280;7281;42.678;23.372;2023-01-30T06:11:56;95281.44;;;3.94;49.52
14393;BME280;7281;42.678;23.372;2023-01-30T06:14:23;95275.09;;;4.34;48.53
14393;BME280;7281;42.678;23.372;2023-01-30T06:16:49;95269.81;;;4.47;48.46
14393;BME280;7281;42.678;23.372;2023-01-30T06:19:16;95275.31;;;4.26;48.80
14393;BME280;7281;42.678;23.372;2023-01-30T06:21:43;95279.78;;;4.06;49.09
14393;BME280;7281;42.678;23.372;2023-01-30T06:24:10;95271.69;;;4.27;48.49
14393;BME280;7281;42.678;23.372;2023-01-30T06:26:37;95266.97;;;4.18;48.83
14393;BME280;7281;42.678;23.372;2023-01-30T06:29:04;95267.31;;;4.34;49.41
14393;BME280;7281;42.678;23.372;2023-01-30T06:31:31;95268.31;;;4.64;50.34
14393;BME280;7281;42.678;23.372;2023-01-30T06:33:58;95266.38;;;4.53;48.75
14393;BME280;7281;42.678;23.372;2023-01-30T06:36:24;95268.81;;;4.48;48.58
14393;BME280;7281;42.678;23.372;2023-01-30T06:38:51;95267.41;;;4.08;48.92
14393;BME280;7281;42.678;23.372;2023-01-30T06:41:18;95270.75;;;4.59;48.45
14393;BME280;7281;42.678;23.372;2023-01-30T06:43:46;95265.63;;;4.46;48.60
14393;BME280;7281;42.678;23.372;2023-01-30T06:46:13;95275.38;;;4.13;49.18
14393;BME280;7281;42.678;23.372;2023-01-30T06:48:40;95271.75;;;4.21;48.96
14393;BME280;7281;42.678;23.372;2023-01-30T06:51:06;95272.09;;;4.68;48.22
14393;BME280;7281;42.678;23.372;2023-01-30T06:53:33;95278.75;;;4.51;48.34
14393;BME280;7281;42.678;23.372;2023-01-30T06:56:00;95278.44;;;4.41;48.25
14393;BME280;7281;42.678;23.372;2023-01-30T06:58:27;95279.81;;;4.44;48.56
14393;BME280;7281;42.678;23.372;2023-01-30T07:00:54;95281.47;;;4.32;48.50
14393;BME280;7281;42.678;23.372;2023-01-30T07:03:21;95283.78;;;4.08;48.84
14393;BME280;7281;42.678;23.372;2023-01-30T07:05:48;95285.31;;;4.16;48.71
14393;BME280;7281;42.678;23.372;2023-01-30T07:08:15;95284.66;;;4.27;48.77
14393;BME280;7281;42.678;23.372;2023-01-30T07:10:43;95292.16;;;4.04;49.18
14393;BME280;7281;42.678;23.372;2023-01-30T07:13:11;95292.19;;;3.91;49.44
14393;BME280;7281;42.678;23.372;2023-01-30T07:15:38;95295.63;;;4.29;48.03
14393;BME280;7281;42.678;23.372;2023-01-30T07:18:05;95290.31;;;4.55;47.87
14393;BME280;7281;42.678;23.372;2023-01-30T07:20:32;95289.78;;;4.02;48.92
14393;BME280;7281;42.678;23.372;2023-01-30T07:22:59;95295.25;;;4.32;48.70
14393;BME280;7281;42.678;23.372;2023-01-30T07:25:27;95284.13;;;4.25;48.45
14393;BME280;7281;42.678;23.372;2023-01-30T07:27:57;95288.34;;;4.13;48.36
14393;BME280;7281;42.678;23.372;2023-01-30T07:30:25;95299.03;;;4.67;47.74
14393;BME280;7281;42.678;23.372;2023-01-30T07:32:56;95291.59;;;4.77;47.19
14393;BME280;7281;42.678;23.372;2023-01-30T07:35:25;95301.81;;;4.72;47.89
14393;BME280;7281;42.678;23.372;2023-01-30T07:37:52;95295.81;;;4.72;48.09
14393;BME280;7281;42.678;23.372;2023-01-30T07:40:19;95296.28;;;4.93;47.14
14393;BME280;7281;42.678;23.372;2023-01-30T07:43:00;95300.28;;;4.58;47.86
14393;BME280;7281;42.678;23.372;2023-01-30T07:45:34;95297.88;;;4.63;47.68
14393;BME280;7281;42.678;23.372;2023-01-30T07:48:02;95290.41;;;4.42;47.68
14393;BME280;7281;42.678;23.372;2023-01-30T07:50:29;95301.94;;;4.46;47.96
14393;BME280;7281;42.678;23.372;2023-01-30T07:52:56;95308.16;;;4.45;48.15
14393;BME280;7281;42.678;23.372;2023-01-30T07:55:23;95283.94;;;4.51;48.04
14393;BME280;7281;42.678;23.372;2023-01-30T07:57:50;95285.84;;;4.38;48.33
14393;BME280;7281;42.678;23.372;2023-01-30T08:00:17;95278.13;;;4.18;48.74
14393;BME280;7281;42.678;23.372;2023-01-30T08:02:44;95276.03;;;4.71;47.72
14393;BME280;7281;42.678;23.372;2023-01-30T08:05:11;95269.50;;;4.68;47.49
14393;BME280;7281;42.678;23.372;2023-01-30T08:07:38;95274.66;;;4.99;46.63
14393;BME280;7281;42.678;23.372;2023-01-30T08:10:06;95252.38;;;4.85;47.23
14393;BME280;7281;42.678;23.372;2023-01-30T08:12:35;95262.31;;;5.20;46.43
14393;BME280;7281;42.678;23.372;2023-01-30T08:15:02;95273.38;;;4.84;47.17
14393;BME280;7281;42.678;23.372;2023-01-30T08:17:29;95268.00;;;4.54;47.68
14393;BME280;7281;42.678;23.372;2023-01-30T08:19:56;95259.63;;;4.52;47.22
14393;BME280;7281;42.678;23.372;2023-01-30T08:22:23;95260.00;;;4.49;47.22
14393;BME280;7281;42.678;23.372;2023-01-30T08:24:49;95262.59;;;4.80;47.00
14393;BME280;7281;42.678;23.372;2023-01-30T08:27:16;95259.41;;;4.78;46.49
14393;BME280;7281;42.678;23.372;2023-01-30T08:29:43;95264.13;;;4.94;46.23
14393;BME280;7281;42.678;23.372;2023-01-30T08:32:10;95256.72;;;4.67;46.34
14393;BME280;7281;42.678;23.372;2023-01-30T08:34:38;95255.91;;;4.66;46.78
14393;BME280;7281;42.678;23.372;2023-01-30T08:37:05;95252.53;;;4.66;47.50
14393;BME280;7281;42.678;23.372;2023-01-30T08:39:32;95246.19;;;4.86;47.14
14393;BME280;7281;42.678;23.372;2023-01-30T08:42:01;95248.13;;;4.91;46.64
14393;BME280;7281;42.678;23.372;2023-01-30T08:44:28;95238.84;;;4.83;46.77
14393;BME280;7281;42.678;23.372;2023-01-30T08:46:55;95246.34;;;4.91;46.57
14393;BME280;7281;42.678;23.372;2023-01-30T08:49:22;95240.84;;;4.50;47.04
14393;BME280;7281;42.678;23.372;2023-01-30T08:51:49;95240.28;;;4.73;46.55
14393;BME280;7281;42.678;23.372;2023-01-30T08:54:15;95239.53;;;4.72;46.67
14393;BME280;7281;42.678;23.372;2023-01-30T08:56:42;95228.38;;;4.65;46.68
14393;BME280;7281;42.678;23.372;2023-01-30T08:59:09;95232.63;;;4.84;46.37
14393;BME280;7281;42.678;23.372;2023-01-30T09:01:36;95238.09;;;4.45;46.81
14393;BME280;7281;42.678;23.372;2023-01-30T09:04:04;95227.75;;;4.39;46.83
14393;BME280;7281;42.678;23.372;2023-01-30T09:06:31;95225.44;;;4.55;46.64
14393;BME280;7281;42.678;23.372;2023-01-30T09:08:58;95212.59;;;4.67;46.30
14393;BME280;7281;42.678;23.372;2023-01-30T09:11:25;95213.56;;;4.72;46.00
14393;BME280;7281;42.678;23.372;2023-01-30T09:13:53;95220.19;;;4.37;46.65
14393;BME280;7281;42.678;23.372;2023-01-30T09:16:20;95215.31;;;4.47;46.49
14393;BME280;7281;42.678;23.372;2023-01-30T09:18:47;95198.59;;;4.43;46.21
14393;BME280;7281;42.678;23.372;2023-01-30T09:21:15;95209.13;;;4.79;45.88
14393;BME280;7281;42.678;23.372;2023-01-30T09:23:42;95212.22;;;4.63;46.00
14393;BME280;7281;42.678;23.372;2023-01-30T09:26:09;95219.81;;;4.89;45.64
14393;BME280;7281;42.678;23.372;2023-01-30T09:28:35;95210.59;;;4.93;45.73
14393;BME280;7281;42.678;23.372;2023-01-30T09:31:03;95216.50;;;5.00;45.36
14393;BME280;7281;42.678;23.372;2023-01-30T09:33:30;95211.66;;;5.10;45.43
14393;BME280;7281;42.678;23.372;2023-01-30T09:35:57;95214.28;;;5.29;45.25
14393;BME280;7281;42.678;23.372;2023-01-30T09:38:23;95211.47;;;5.05;45.63
14393;BME280;7281;42.678;23.372;2023-01-30T09:46:29;95206.97;;;4.14;46.90
14393;BME280;7281;42.678;23.372;2023-01-30T09:54:45;95189.63;;;4.39;46.49
14393;BME280;7281;42.678;23.372;2023-01-30T09:57:23;95197.34;;;4.52;46.17
14393;BME280;7281;42.678;23.372;2023-01-30T10:03:10;95183.34;;;4.53;46.37
14393;BME280;7281;42.678;23.372;2023-01-30T10:05:51;95181.63;;;4.41;46.44
14393;BME280;7281;42.678;23.372;2023-01-30T10:11:08;95162.97;;;4.81;47.94
14393;BME280;7281;42.678;23.372;2023-01-30T10:19:00;95149.13;;;4.87;46.98
14393;BME280;7281;42.678;23.372;2023-01-30T10:21:46;95144.91;;;4.68;46.74
14393;BME280;7281;42.678;23.372;2023-01-30T10:24:29;95144.00;;;4.81;46.28
14393;BME280;7281;42.678;23.372;2023-01-30T10:26:58;95146.97;;;4.35;46.33
14393;BME280;7281;42.678;23.372;2023-01-30T10:29:35;95127.97;;;4.41;46.55
14393;BME280;7281;42.678;23.372;2023-01-30T10:32:10;95139.78;;;4.31;46.70
14393;BME280;7281;42.678;23.372;2023-01-30T10:34:41;95125.63;;;4.33;46.38
14393;BME280;7281;42.678;23.372;2023-01-30T10:37:23;95116.72;;;4.47;45.83
14393;BME280;7281;42.678;23.372;2023-01-30T10:45:31;95103.22;;;4.39;45.99
14393;BME280;7281;42.678;23.372;2023-01-30T10:48:44;95093.41;;;4.65;45.25
14393;BME280;7281;42.678;23.372;2023-01-30T10:54:09;95088.06;;;4.11;45.43
14393;BME280;7281;42.678;23.372;2023-01-30T10:59:20;95073.47;;;3.92;45.79
14393;BME280;7281;42.678;23.372;2023-01-30T11:01:57;95057.44;;;4.26;45.26
14393;BME280;7281;42.678;23.372;2023-01-30T11:04:39;95054.16;;;4.37;45.28
14393;BME280;7281;42.678;23.372;2023-01-30T11:07:11;95047.84;;;4.69;44.85
14393;BME280;7281;42.678;23.372;2023-01-30T11:09:46;95042.16;;;5.15;44.23
14393;BME280;7281;42.678;23.372;2023-01-30T11:12:14;95043.22;;;5.44;43.91
14393;BME280;7281;42.678;23.372;2023-01-30T11:17:19;95038.41;;;5.29;43.55
14393;BME280;7281;42.678;23.372;2023-01-30T11:19:54;95020.41;;;5.28;43.43
14393;BME280;7281;42.678;23.372;2023-01-30T11:22:24;95012.69;;;4.31;44.64
14393;BME280;7281;42.678;23.372;2023-01-30T11:25:04;95018.88;;;4.90;44.33
14393;BME280;7281;42.678;23.372;2023-01-30T11:27:33;95012.81;;;4.78;44.67
14393;BME280;7281;42.678;23.372;2023-01-30T11:30:18;95000.84;;;4.59;44.89
14393;BME280;7281;42.678;23.372;2023-01-30T11:32:49;95003.16;;;5.03;44.35
14393;BME280;7281;42.678;23.372;2023-01-30T11:35:24;95005.19;;;5.01;44.31
14393;BME280;7281;42.678;23.372;2023-01-30T11:37:52;95004.31;;;4.89;43.82
14393;BME280;7281;42.678;23.372;2023-01-30T11:40:25;94997.97;;;5.03;44.14
14393;BME280;7281;42.678;23.372;2023-01-30T11:43:04;94988.16;;;4.87;43.85
14393;BME280;7281;42.678;23.372;2023-01-30T11:45:37;94984.31;;;5.38;43.30
14393;BME280;7281;42.678;23.372;2023-01-30T11:48:21;94972.19;;;5.02;43.70
14393;BME280;7281;42.678;23.372;2023-01-30T11:51:11;94961.28;;;5.11;43.72
14393;BME280;7281;42.678;23.372;2023-01-30T11:53:56;94959.31;;;5.25;42.99
14393;BME280;7281;42.678;23.372;2023-01-30T11:59:02;94956.78;;;5.18;43.73
14393;BME280;7281;42.678;23.372;2023-01-30T12:01:34;94949.94;;;5.24;43.21
14393;BME280;7281;42.678;23.372;2023-01-30T12:04:05;94939.00;;;5.34;42.67
14393;BME280;7281;42.678;23.372;2023-01-30T12:06:37;94927.91;;;5.79;42.92
14393;BME280;7281;42.678;23.372;2023-01-30T12:09:05;94923.66;;;6.08;42.26
14393;BME280;7281;42.678;23.372;2023-01-30T12:11:51;94924.28;;;5.69;41.90
14393;BME280;7281;42.678;23.372;2023-01-30T12:14:37;94913.91;;;6.15;42.26
14393;BME280;7281;42.678;23.372;2023-01-30T12:19:53;94913.34;;;5.78;42.02
14393;BME280;7281;42.678;23.372;2023-01-30T12:22:47;94895.97;;;5.90;42.19
14393;BME280;7281;42.678;23.372;2023-01-30T12:25:21;94903.63;;;6.32;41.42
14393;BME280;7281;42.678;23.372;2023-01-30T12:28:12;94894.00;;;6.32;41.49
14393;BME280;7281;42.678;23.372;2023-01-30T12:30:50;94899.44;;;6.42;40.77
14393;BME280;7281;42.678;23.372;2023-01-30T12:33:21;94893.16;;;5.39;41.80
14393;BME280;7281;42.678;23.372;2023-01-30T12:38:39;94883.19;;;5.89;41.18
14393;BME280;7281;42.678;23.372;2023-01-30T12:47:02;94855.94;;;8.10;39.28
14393;BME280;7281;42.678;23.372;2023-01-30T12:50:26;94855.75;;;9.03;36.03
14393;BME280;7281;42.678;23.372;2023-01-30T12:52:55;94853.56;;;7.92;36.39
14393;BME280;7281;42.678;23.372;2023-01-30T12:55:21;94855.56;;;6.90;38.05
14393;BME280;7281;42.678;23.372;2023-01-30T12:58:05;94857.81;;;6.19;40.19
14393;BME280;7281;42.678;23.372;2023-01-30T13:06:58;94856.97;;;5.14;41.70
14393;BME280;7281;42.678;23.372;2023-01-30T13:14:51;94844.59;;;5.63;41.75
14393;BME280;7281;42.678;23.372;2023-01-30T13:17:44;94853.28;;;5.34;42.74
14393;BME280;7281;42.678;23.372;2023-01-30T13:23:19;94839.72;;;5.55;42.01
14393;BME280;7281;42.678;23.372;2023-01-30T13:25:57;94832.50;;;5.34;42.18
14393;BME280;7281;42.678;23.372;2023-01-30T13:28:31;94841.63;;;5.25;42.40
14393;BME280;7281;42.678;23.372;2023-01-30T13:31:00;94822.84;;;4.99;42.65
14393;BME280;7281;42.678;23.372;2023-01-30T13:33:32;94831.34;;;5.30;41.90
14393;BME280;7281;42.678;23.372;2023-01-30T13:36:39;94823.59;;;5.53;41.95
14393;BME280;7281;42.678;23.372;2023-01-30T13:39:14;94812.94;;;5.31;42.06
14393;BME280;7281;42.678;23.372;2023-01-30T13:41:50;94813.50;;;5.33;42.65
14393;BME280;7281;42.678;23.372;2023-01-30T13:44:28;94809.56;;;5.54;42.26
14393;BME280;7281;42.678;23.372;2023-01-30T13:46:58;94818.34;;;5.30;42.40
14393;BME280;7281;42.678;23.372;2023-01-30T13:49:42;94807.31;;;6.03;41.86
14393;BME280;7281;42.678;23.372;2023-01-30T13:52:25;94807.31;;;6.43;40.50
14393;BME280;7281;42.678;23.372;2023-01-30T13:57:56;94813.44;;;6.37;40.55
14393;BME280;7281;42.678;23.372;2023-01-30T14:00:33;94804.13;;;7.14;39.77
14393;BME280;7281;42.678;23.372;2023-01-30T14:08:23;94805.31;;;6.62;38.90
14393;BME280;7281;42.678;23.372;2023-01-30T14:10:51;94805.84;;;5.96;40.06
14393;BME280;7281;42.678;23.372;2023-01-30T14:13:22;94777.13;;;5.68;40.42
14393;BME280;7281;42.678;23.372;2023-01-30T14:18:26;94814.53;;;5.67;40.83
14393;BME280;7281;42.678;23.372;2023-01-30T14:21:12;94809.34;;;5.32;41.57
14393;BME280;7281;42.678;23.372;2023-01-30T14:23:40;94811.38;;;5.76;40.95
14393;BME280;7281;42.678;23.372;2023-01-30T14:26:08;94810.59;;;5.53;40.75
14393;BME280;7281;42.678;23.372;2023-01-30T14:28:45;94816.25;;;5.73;41.43
14393;BME280;7281;42.678;23.372;2023-01-30T14:31:46;94788.41;;;4.92;42.00
14393;BME280;7281;42.678;23.372;2023-01-30T14:35:18;94818.94;;;5.55;41.79
14393;BME280;7281;42.678;23.372;2023-01-30T14:56:14;94788.72;;;4.84;42.06
14393;BME280;7281;42.678;23.372;2023-01-30T14:58:59;94796.09;;;5.10;42.33
14393;BME280;7281;42.678;23.372;2023-01-30T15:04:40;94788.22;;;5.29;41.83
14393;BME280;7281;42.678;23.372;2023-01-30T15:07:21;94793.47;;;4.99;42.74
14393;BME280;7281;42.678;23.372;2023-01-30T15:10:01;94782.06;;;4.88;42.76
14393;BME280;7281;42.678;23.372;2023-01-30T15:15:20;94781.19;;;5.06;42.37
14393;BME280;7281;42.678;23.372;2023-01-30T15:31:59;94800.41;;;4.34;43.97
14393;BME280;7281;42.678;23.372;2023-01-30T15:34:29;94789.28;;;3.97;44.33
14393;BME280;7281;42.678;23.372;2023-01-30T15:36:56;94783.50;;;4.43;43.36
14393;BME280;7281;42.678;23.372;2023-01-30T15:39:25;94790.25;;;3.96;43.97
14393;BME280;7281;42.678;23.372;2023-01-30T15:41:57;94786.38;;;4.05;44.21
14393;BME280;7281;42.678;23.372;2023-01-30T15:44:38;94784.69;;;4.29;43.85
14393;BME280;7281;42.678;23.372;2023-01-30T15:47:31;94795.69;;;4.43;43.01
14393;BME280;7281;42.678;23.372;2023-01-30T15:50:09;94795.38;;;4.03;44.03
14393;BME280;7281;42.678;23.372;2023-01-30T15:52:47;94797.94;;;3.67;44.57
14393;BME280;7281;42.678;23.372;2023-01-30T15:55:23;94792.28;;;4.42;43.60
14393;BME280;7281;42.678;23.372;2023-01-30T15:58:03;94780.44;;;4.17;43.14
14393;BME280;7281;42.678;23.372;2023-01-30T16:00:36;94784.84;;;4.34;43.54
14393;BME280;7281;42.678;23.372;2023-01-30T16:03:05;94781.38;;;4.22;43.26
14393;BME280;7281;42.678;23.372;2023-01-30T16:05:45;94767.50;;;4.46;43.29
14393;BME280;7281;42.678;23.372;2023-01-30T16:08:22;94787.09;;;4.42;43.25
14393;BME280;7281;42.678;23.372;2023-01-30T16:10:49;94783.53;;;4.55;43.06